sensor_id;sensor_type;location;lat;lon;timestamp;P1;durP1;ratioP1;P2;durP2;ratioP2
19505;SDS011;9894;50.852;-0.140;2023-06-14T00:00:22;4.10;;;3.38;;
19505;SDS011;9894;50.852;-0.140;2023-06-14T00:02:48;3.40;;;3.20;;
19505;SDS011;9894;50.852;-0.140;2023-06-14T00:05:15;3.22;;;3.08;;
19505;SDS011;9894;50.852;-0.140;2023-06-14T00:07:42;3.80;;;3.50;;
19505;SDS011;9894;50.852;-0.140;2023-06-14T00:10:10;3.35;;;3.15;;
19505;SDS011;9894;50.852;-0.140;2023-06-14T00:12:40;3.50;;;3.30;;
19505;SDS011;9894;50.852;-0.140;2023-06-14T00:15:07;3.50;;;3.30;;
19505;SDS011;9894;50.852;-0.140;2023-06-14T00:17:35;3.70;;;3.50;;
19505;SDS011;9894;50.852;-0.140;2023-06-14T00:20:06;3.63;;;3.42;;
19505;SDS011;9894;50.852;-0.140;2023-06-14T00:22:35;3.50;;;3.30;;
19505;SDS011;9894;50.852;-0.140;2023-06-14T00:25:02;3.67;;;3.47;;
19505;SDS011;9894;50.852;-0.140;2023-06-14T00:27:29;3.50;;;3.30;;
19505;SDS011;9894;50.852;-0.140;2023-06-14T00:29:56;3.50;;;3.30;;
19505;SDS011;9894;50.852;-0.140;2023-06-14T00:32:23;3.60;;;3.40;;
19505;SDS011;9894;50.852;-0.140;2023-06-14T00:34:51;4.30;;;4.00;;
19505;SDS011;9894;50.852;-0.140;2023-06-14T00:37:18;3.70;;;3.50;;
19505;SDS011;9894;50.852;-0.140;2023-06-14T00:39:54;3.60;;;3.40;;
19505;SDS011;9894;50.852;-0.140;2023-06-14T00:42:26;3.70;;;3.50;;
19505;SDS011;9894;50.852;-0.140;2023-06-14T00:44:53;3.67;;;3.47;;
19505;SDS011;9894;50.852;-0.140;2023-06-14T00:47:20;3.60;;;3.40;;
19505;SDS011;9894;50.852;-0.140;2023-06-14T00:49:48;3.55;;;3.35;;
19505;SDS011;9894;50.852;-0.140;2023-06-14T00:52:35;3.60;;;3.40;;
19505;SDS011;9894;50.852;-0.140;2023-06-14T00:55:01;3.85;;;3.65;;
19505;SDS011;9894;50.852;-0.140;2023-06-14T00:57:28;3.60;;;3.40;;
19505;SDS011;9894;50.852;-0.140;2023-06-14T00:59:55;3.50;;;3.30;;
19505;SDS011;9894;50.852;-0.140;2023-06-14T01:02:21;3.50;;;3.30;;
19505;SDS011;9894;50.852;-0.140;2023-06-14T01:04:49;3.65;;;3.45;;
19505;SDS011;9894;50.852;-0.140;2023-06-14T01:10:08;3.70;;;3.50;;
19505;SDS011;9894;50.852;-0.140;2023-06-14T01:15:00;3.80;;;3.60;;
19505;SDS011;9894;50.852;-0.140;2023-06-14T01:17:28;3.78;;;3.58;;
19505;SDS011;9894;50.852;-0.140;2023-06-14T01:20:03;3.70;;;3.50;;
19505;SDS011;9894;50.852;-0.140;2023-06-14T01:22:35;3.50;;;3.30;;
19505;SDS011;9894;50.852;-0.140;2023-06-14T01:25:01;3.63;;;3.42;;
19505;SDS011;9894;50.852;-0.140;2023-06-14T01:27:37;3.50;;;3.30;;
19505;SDS011;9894;50.852;-0.140;2023-06-14T01:30:04;3.53;;;3.33;;
19505;SDS011;9894;50.852;-0.140;2023-06-14T01:32:31;3.95;;;3.60;;
19505;SDS011;9894;50.852;-0.140;2023-06-14T01:34:57;4.30;;;4.00;;
19505;SDS011;9894;50.852;-0.140;2023-06-14T01:37:27;3.80;;;3.60;;
19505;SDS011;9894;50.852;-0.140;2023-06-14T01:39:54;3.55;;;3.35;;
19505;SDS011;9894;50.852;-0.140;2023-06-14T01:42:21;3.53;;;3.33;;
19505;SDS011;9894;50.852;-0.140;2023-06-14T01:44:50;3.58;;;3.38;;
19505;SDS011;9894;50.852;-0.140;2023-06-14T01:47:18;3.50;;;3.30;;
19505;SDS011;9894;50.852;-0.140;2023-06-14T01:49:46;3.70;;;3.50;;
19505;SDS011;9894;50.852;-0.140;2023-06-14T01:52:13;3.80;;;3.60;;
19505;SDS011;9894;50.852;-0.140;2023-06-14T01:54:39;3.90;;;3.70;;
19505;SDS011;9894;50.852;-0.140;2023-06-14T01:57:11;3.80;;;3.60;;
19505;SDS011;9894;50.852;-0.140;2023-06-14T01:59:47;3.80;;;3.60;;
19505;SDS011;9894;50.852;-0.140;2023-06-14T02:02:14;4.88;;;4.57;;
19505;SDS011;9894;50.852;-0.140;2023-06-14T02:04:45;3.30;;;3.10;;
19505;SDS011;9894;50.852;-0.140;2023-06-14T02:07:15;3.40;;;3.20;;
19505;SDS011;9894;50.852;-0.140;2023-06-14T02:09:46;3.60;;;3.40;;
19505;SDS011;9894;50.852;-0.140;2023-06-14T02:12:14;3.80;;;3.60;;
19505;SDS011;9894;50.852;-0.140;2023-06-14T02:14:42;3.72;;;3.53;;
19505;SDS011;9894;50.852;-0.140;2023-06-14T02:17:09;3.70;;;3.50;;
19505;SDS011;9894;50.852;-0.140;2023-06-14T02:19:37;3.72;;;3.53;;
19505;SDS011;9894;50.852;-0.140;2023-06-14T02:22:04;3.88;;;3.67;;
19505;SDS011;9894;50.852;-0.140;2023-06-14T02:24:31;3.80;;;3.60;;
19505;SDS011;9894;50.852;-0.140;2023-06-14T02:26:57;3.67;;;3.47;;
19505;SDS011;9894;50.852;-0.140;2023-06-14T02:29:23;3.80;;;3.60;;
19505;SDS011;9894;50.852;-0.140;2023-06-14T02:32:00;4.45;;;4.15;;
19505;SDS011;9894;50.852;-0.140;2023-06-14T02:34:28;3.80;;;3.60;;
19505;SDS011;9894;50.852;-0.140;2023-06-14T02:37:00;4.10;;;3.80;;
19505;SDS011;9894;50.852;-0.140;2023-06-14T02:39:30;4.03;;;3.72;;
19505;SDS011;9894;50.852;-0.140;2023-06-14T02:41:57;3.90;;;3.70;;
19505;SDS011;9894;50.852;-0.140;2023-06-14T02:44:26;4.00;;;3.78;;
19505;SDS011;9894;50.852;-0.140;2023-06-14T02:46:53;3.70;;;3.50;;
19505;SDS011;9894;50.852;-0.140;2023-06-14T02:49:24;4.07;;;3.88;;
19505;SDS011;9894;50.852;-0.140;2023-06-14T02:51:53;3.50;;;3.30;;
19505;SDS011;9894;50.852;-0.140;2023-06-14T02:54:25;3.47;;;3.28;;
19505;SDS011;9894;50.852;-0.140;2023-06-14T02:56:56;3.90;;;3.70;;
19505;SDS011;9894;50.852;-0.140;2023-06-14T02:59:25;3.90;;;3.70;;
19505;SDS011;9894;50.852;-0.140;2023-06-14T03:01:55;3.88;;;3.67;;
19505;SDS011;9894;50.852;-0.140;2023-06-14T03:04:21;4.00;;;3.80;;
19505;SDS011;9894;50.852;-0.140;2023-06-14T03:06:49;3.80;;;3.60;;
19505;SDS011;9894;50.852;-0.140;2023-06-14T03:09:16;3.60;;;3.40;;
19505;SDS011;9894;50.852;-0.140;2023-06-14T03:11:42;4.50;;;4.07;;
19505;SDS011;9894;50.852;-0.140;2023-06-14T03:14:09;3.70;;;3.50;;
19505;SDS011;9894;50.852;-0.140;2023-06-14T03:16:37;3.95;;;3.72;;
19505;SDS011;9894;50.852;-0.140;2023-06-14T03:19:04;4.13;;;3.92;;
19505;SDS011;9894;50.852;-0.140;2023-06-14T03:21:30;4.25;;;3.95;;
19505;SDS011;9894;50.852;-0.140;2023-06-14T03:23:57;3.60;;;3.40;;
19505;SDS011;9894;50.852;-0.140;2023-06-14T03:26:23;5.22;;;3.80;;
19505;SDS011;9894;50.852;-0.140;2023-06-14T03:28:50;4.10;;;3.90;;
19505;SDS011;9894;50.852;-0.140;2023-06-14T03:31:17;3.80;;;3.60;;
19505;SDS011;9894;50.852;-0.140;2023-06-14T03:33:44;3.70;;;3.50;;
19505;SDS011;9894;50.852;-0.140;2023-06-14T03:36:10;4.10;;;3.90;;
19505;SDS011;9894;50.852;-0.140;2023-06-14T03:38:37;3.90;;;3.70;;
19505;SDS011;9894;50.852;-0.140;2023-06-14T03:41:04;3.92;;;3.72;;
19505;SDS011;9894;50.852;-0.140;2023-06-14T03:43:33;4.07;;;3.88;;
19505;SDS011;9894;50.852;-0.140;2023-06-14T03:46:00;4.28;;;4.07;;
19505;SDS011;9894;50.852;-0.140;2023-06-14T03:48:26;4.35;;;4.10;;
19505;SDS011;9894;50.852;-0.140;2023-06-14T03:50:52;4.60;;;4.30;;
19505;SDS011;9894;50.852;-0.140;2023-06-14T03:53:20;4.68;;;4.38;;
19505;SDS011;9894;50.852;-0.140;2023-06-14T03:55:49;4.63;;;4.32;;
19505;SDS011;9894;50.852;-0.140;2023-06-14T03:58:17;4.78;;;4.47;;
19505;SDS011;9894;50.852;-0.140;2023-06-14T04:00:44;5.47;;;5.00;;
19505;SDS011;9894;50.852;-0.140;2023-06-14T04:03:11;4.75;;;4.45;;
19505;SDS011;9894;50.852;-0.140;2023-06-14T04:05:42;5.47;;;5.18;;
19505;SDS011;9894;50.852;-0.140;2023-06-14T04:08:10;4.88;;;4.57;;
19505;SDS011;9894;50.852;-0.140;2023-06-14T04:10:44;4.90;;;4.60;;
19505;SDS011;9894;50.852;-0.140;2023-06-14T04:13:10;5.00;;;4.70;;
19505;SDS011;9894;50.852;-0.140;2023-06-14T04:15:42;5.10;;;4.80;;
19505;SDS011;9894;50.852;-0.140;2023-06-14T04:18:11;5.28;;;4.97;;
19505;SDS011;9894;50.852;-0.140;2023-06-14T04:20:38;5.10;;;4.80;;
19505;SDS011;9894;50.852;-0.140;2023-06-14T04:23:12;6.30;;;5.90;;
19505;SDS011;9894;50.852;-0.140;2023-06-14T04:25:39;4.85;;;4.55;;
19505;SDS011;9894;50.852;-0.140;2023-06-14T04:28:08;5.10;;;4.80;;
19505;SDS011;9894;50.852;-0.140;2023-06-14T04:30:36;5.30;;;5.00;;
19505;SDS011;9894;50.852;-0.140;2023-06-14T04:33:04;5.20;;;4.90;;
19505;SDS011;9894;50.852;-0.140;2023-06-14T04:35:31;7.13;;;5.00;;
19505;SDS011;9894;50.852;-0.140;2023-06-14T04:38:04;4.82;;;4.53;;
19505;SDS011;9894;50.852;-0.140;2023-06-14T04:40:30;5.20;;;4.90;;
19505;SDS011;9894;50.852;-0.140;2023-06-14T04:42:58;5.40;;;5.10;;
19505;SDS011;9894;50.852;-0.140;2023-06-14T04:45:27;5.30;;;5.00;;
19505;SDS011;9894;50.852;-0.140;2023-06-14T04:48:05;4.93;;;4.63;;
19505;SDS011;9894;50.852;-0.140;2023-06-14T04:50:33;5.22;;;4.93;;
19505;SDS011;9894;50.852;-0.140;2023-06-14T04:53:01;5.07;;;4.78;;
19505;SDS011;9894;50.852;-0.140;2023-06-14T04:55:29;5.50;;;5.20;;
19505;SDS011;9894;50.852;-0.140;2023-06-14T04:57:56;6.00;;;5.60;;
19505;SDS011;9894;50.852;-0.140;2023-06-14T05:00:23;6.00;;;5.60;;
19505;SDS011;9894;50.852;-0.140;2023-06-14T05:02:52;6.50;;;6.10;;
19505;SDS011;9894;50.852;-0.140;2023-06-14T05:05:23;6.60;;;6.10;;
19505;SDS011;9894;50.852;-0.140;2023-06-14T05:07:53;6.80;;;6.28;;
19505;SDS011;9894;50.852;-0.140;2023-06-14T05:10:19;6.70;;;6.30;;
19505;SDS011;9894;50.852;-0.140;2023-06-14T05:12:45;7.68;;;7.13;;
19505;SDS011;9894;50.852;-0.140;2023-06-14T05:15:13;7.18;;;6.68;;
19505;SDS011;9894;50.852;-0.140;2023-06-14T05:17:40;7.93;;;7.43;;
19505;SDS011;9894;50.852;-0.140;2023-06-14T05:20:06;7.03;;;6.60;;
19505;SDS011;9894;50.852;-0.140;2023-06-14T05:22:35;6.90;;;6.50;;
19505;SDS011;9894;50.852;-0.140;2023-06-14T05:25:02;7.80;;;7.30;;
19505;SDS011;9894;50.852;-0.140;2023-06-14T05:27:28;7.70;;;7.20;;
19505;SDS011;9894;50.852;-0.140;2023-06-14T05:29:56;8.05;;;7.55;;
19505;SDS011;9894;50.852;-0.140;2023-06-14T05:32:27;8.20;;;7.70;;
19505;SDS011;9894;50.852;-0.140;2023-06-14T05:34:54;7.68;;;7.18;;
19505;SDS011;9894;50.852;-0.140;2023-06-14T05:37:24;8.52;;;7.93;;
19505;SDS011;9894;50.852;-0.140;2023-06-14T05:39:50;8.75;;;7.90;;
19505;SDS011;9894;50.852;-0.140;2023-06-14T05:42:17;9.23;;;8.63;;
19505;SDS011;9894;50.852;-0.140;2023-06-14T05:44:43;8.50;;;7.93;;
19505;SDS011;9894;50.852;-0.140;2023-06-14T05:47:09;9.57;;;8.95;;
19505;SDS011;9894;50.852;-0.140;2023-06-14T05:49:36;8.02;;;7.53;;
19505;SDS011;9894;50.852;-0.140;2023-06-14T05:52:02;9.20;;;8.60;;
19505;SDS011;9894;50.852;-0.140;2023-06-14T05:54:29;8.55;;;7.95;;
19505;SDS011;9894;50.852;-0.140;2023-06-14T05:56:57;25.70;;;10.82;;
19505;SDS011;9894;50.852;-0.140;2023-06-14T05:59:26;9.32;;;8.73;;
19505;SDS011;9894;50.852;-0.140;2023-06-14T06:01:53;8.50;;;7.90;;
19505;SDS011;9894;50.852;-0.140;2023-06-14T06:04:20;10.57;;;9.77;;
19505;SDS011;9894;50.852;-0.140;2023-06-14T06:06:46;10.75;;;9.85;;
19505;SDS011;9894;50.852;-0.140;2023-06-14T06:09:19;9.50;;;8.90;;
19505;SDS011;9894;50.852;-0.140;2023-06-14T06:11:45;10.73;;;10.02;;
19505;SDS011;9894;50.852;-0.140;2023-06-14T06:14:12;9.95;;;9.25;;
19505;SDS011;9894;50.852;-0.140;2023-06-14T06:16:38;11.70;;;10.90;;
19505;SDS011;9894;50.852;-0.140;2023-06-14T06:19:05;9.55;;;8.95;;
19505;SDS011;9894;50.852;-0.140;2023-06-14T06:21:32;12.13;;;11.32;;
19505;SDS011;9894;50.852;-0.140;2023-06-14T06:24:05;8.85;;;8.25;;
19505;SDS011;9894;50.852;-0.140;2023-06-14T06:26:32;11.40;;;10.60;;
19505;SDS011;9894;50.852;-0.140;2023-06-14T06:28:58;11.15;;;10.45;;
19505;SDS011;9894;50.852;-0.140;2023-06-14T06:31:29;9.65;;;9.00;;
19505;SDS011;9894;50.852;-0.140;2023-06-14T06:33:57;10.20;;;9.50;;
19505;SDS011;9894;50.852;-0.140;2023-06-14T06:36:30;10.18;;;9.48;;
19505;SDS011;9894;50.852;-0.140;2023-06-14T06:39:00;10.35;;;9.65;;
19505;SDS011;9894;50.852;-0.140;2023-06-14T06:41:26;10.25;;;9.55;;
19505;SDS011;9894;50.852;-0.140;2023-06-14T06:43:56;11.07;;;10.38;;
19505;SDS011;9894;50.852;-0.140;2023-06-14T06:46:23;11.95;;;11.15;;
19505;SDS011;9894;50.852;-0.140;2023-06-14T06:48:50;10.90;;;10.20;;
19505;SDS011;9894;50.852;-0.140;2023-06-14T06:51:16;11.27;;;10.48;;
19505;SDS011;9894;50.852;-0.140;2023-06-14T06:53:43;10.63;;;9.93;;
19505;SDS011;9894;50.852;-0.140;2023-06-14T06:56:14;9.85;;;9.15;;
19505;SDS011;9894;50.852;-0.140;2023-06-14T06:58:40;12.70;;;11.90;;
19505;SDS011;9894;50.852;-0.140;2023-06-14T07:01:07;11.95;;;11.15;;
19505;SDS011;9894;50.852;-0.140;2023-06-14T07:03:34;10.98;;;10.27;;
19505;SDS011;9894;50.852;-0.140;2023-06-14T07:06:01;11.77;;;10.98;;
19505;SDS011;9894;50.852;-0.140;2023-06-14T07:08:27;13.10;;;12.20;;
19505;SDS011;9894;50.852;-0.140;2023-06-14T07:10:57;11.95;;;11.15;;
19505;SDS011;9894;50.852;-0.140;2023-06-14T07:13:23;12.95;;;12.05;;
19505;SDS011;9894;50.852;-0.140;2023-06-14T07:15:50;12.93;;;12.05;;
19505;SDS011;9894;50.852;-0.140;2023-06-14T07:18:19;11.77;;;10.98;;
19505;SDS011;9894;50.852;-0.140;2023-06-14T07:20:46;11.60;;;10.80;;
19505;SDS011;9894;50.852;-0.140;2023-06-14T07:23:13;12.05;;;11.25;;
19505;SDS011;9894;50.852;-0.140;2023-06-14T07:25:40;11.25;;;10.45;;
19505;SDS011;9894;50.852;-0.140;2023-06-14T07:28:06;11.90;;;11.10;;
19505;SDS011;9894;50.852;-0.140;2023-06-14T07:30:33;12.80;;;12.00;;
19505;SDS011;9894;50.852;-0.140;2023-06-14T07:32:59;11.80;;;11.00;;
19505;SDS011;9894;50.852;-0.140;2023-06-14T07:35:26;11.10;;;10.40;;
19505;SDS011;9894;50.852;-0.140;2023-06-14T07:37:52;11.55;;;10.75;;
19505;SDS011;9894;50.852;-0.140;2023-06-14T07:40:19;9.82;;;9.13;;
19505;SDS011;9894;50.852;-0.140;2023-06-14T07:42:45;11.20;;;10.40;;
19505;SDS011;9894;50.852;-0.140;2023-06-14T07:45:13;9.32;;;8.73;;
19505;SDS011;9894;50.852;-0.140;2023-06-14T07:47:39;10.57;;;9.88;;
19505;SDS011;9894;50.852;-0.140;2023-06-14T07:50:06;9.43;;;8.82;;
19505;SDS011;9894;50.852;-0.140;2023-06-14T07:52:32;10.57;;;9.88;;
19505;SDS011;9894;50.852;-0.140;2023-06-14T07:54:59;10.68;;;9.98;;
19505;SDS011;9894;50.852;-0.140;2023-06-14T07:57:25;9.55;;;8.93;;
19505;SDS011;9894;50.852;-0.140;2023-06-14T07:59:52;10.60;;;9.90;;
19505;SDS011;9894;50.852;-0.140;2023-06-14T08:02:19;9.32;;;8.73;;
19505;SDS011;9894;50.852;-0.140;2023-06-14T08:04:46;8.95;;;8.35;;
19505;SDS011;9894;50.852;-0.140;2023-06-14T08:07:16;9.00;;;8.40;;
19505;SDS011;9894;50.852;-0.140;2023-06-14T08:09:44;10.45;;;9.75;;
19505;SDS011;9894;50.852;-0.140;2023-06-14T08:12:13;8.43;;;7.85;;
19505;SDS011;9894;50.852;-0.140;2023-06-14T08:14:48;8.35;;;7.80;;
19505;SDS011;9894;50.852;-0.140;2023-06-14T08:17:14;8.35;;;7.80;;
19505;SDS011;9894;50.852;-0.140;2023-06-14T08:19:41;8.18;;;7.68;;
19505;SDS011;9894;50.852;-0.140;2023-06-14T08:22:10;7.88;;;7.38;;
19505;SDS011;9894;50.852;-0.140;2023-06-14T08:24:38;7.80;;;7.30;;
19505;SDS011;9894;50.852;-0.140;2023-06-14T08:27:08;11.75;;;10.05;;
19505;SDS011;9894;50.852;-0.140;2023-06-14T08:29:34;7.78;;;7.28;;
19505;SDS011;9894;50.852;-0.140;2023-06-14T08:32:01;7.55;;;7.05;;
19505;SDS011;9894;50.852;-0.140;2023-06-14T08:34:27;9.18;;;8.57;;
19505;SDS011;9894;50.852;-0.140;2023-06-14T08:37:03;8.80;;;8.20;;
19505;SDS011;9894;50.852;-0.140;2023-06-14T08:39:29;9.13;;;8.52;;
19505;SDS011;9894;50.852;-0.140;2023-06-14T08:41:55;7.30;;;6.80;;
19505;SDS011;9894;50.852;-0.140;2023-06-14T08:44:22;8.15;;;7.60;;
19505;SDS011;9894;50.852;-0.140;2023-06-14T08:46:49;6.90;;;6.50;;
19505;SDS011;9894;50.852;-0.140;2023-06-14T08:49:22;6.63;;;6.22;;
19505;SDS011;9894;50.852;-0.140;2023-06-14T08:51:49;7.45;;;6.95;;
19505;SDS011;9894;50.852;-0.140;2023-06-14T08:54:18;6.63;;;6.22;;
19505;SDS011;9894;50.852;-0.140;2023-06-14T08:56:46;6.45;;;6.05;;
19505;SDS011;9894;50.852;-0.140;2023-06-14T08:59:14;7.45;;;6.95;;
19505;SDS011;9894;50.852;-0.140;2023-06-14T09:01:44;6.40;;;6.00;;
19505;SDS011;9894;50.852;-0.140;2023-06-14T09:04:13;7.75;;;7.25;;
19505;SDS011;9894;50.852;-0.140;2023-06-14T09:06:42;9.27;;;8.68;;
19505;SDS011;9894;50.852;-0.140;2023-06-14T09:09:10;5.97;;;5.57;;
19505;SDS011;9894;50.852;-0.140;2023-06-14T09:11:38;8.50;;;7.90;;
19505;SDS011;9894;50.852;-0.140;2023-06-14T09:14:08;6.20;;;5.80;;
19505;SDS011;9894;50.852;-0.140;2023-06-14T09:16:35;6.43;;;6.03;;
19505;SDS011;9894;50.852;-0.140;2023-06-14T09:19:01;6.22;;;5.82;;
19505;SDS011;9894;50.852;-0.140;2023-06-14T09:21:28;5.95;;;5.55;;
19505;SDS011;9894;50.852;-0.140;2023-06-14T09:23:59;7.20;;;6.70;;
19505;SDS011;9894;50.852;-0.140;2023-06-14T09:26:29;5.82;;;5.43;;
19505;SDS011;9894;50.852;-0.140;2023-06-14T09:29:01;7.45;;;6.95;;
19505;SDS011;9894;50.852;-0.140;2023-06-14T09:31:27;7.28;;;6.78;;
19505;SDS011;9894;50.852;-0.140;2023-06-14T09:33:57;12.75;;;11.50;;
19505;SDS011;9894;50.852;-0.140;2023-06-14T09:36:24;7.80;;;7.30;;
19505;SDS011;9894;50.852;-0.140;2023-06-14T09:38:51;7.40;;;6.90;;
19505;SDS011;9894;50.852;-0.140;2023-06-14T09:41:30;8.00;;;7.50;;
19505;SDS011;9894;50.852;-0.140;2023-06-14T09:43:58;6.78;;;6.38;;
19505;SDS011;9894;50.852;-0.140;2023-06-14T09:46:28;6.45;;;6.05;;
19505;SDS011;9894;50.852;-0.140;2023-06-14T09:48:55;6.10;;;5.70;;
19505;SDS011;9894;50.852;-0.140;2023-06-14T09:51:22;6.32;;;5.93;;
19505;SDS011;9894;50.852;-0.140;2023-06-14T09:53:49;6.70;;;6.30;;
19505;SDS011;9894;50.852;-0.140;2023-06-14T09:56:17;6.90;;;6.50;;
19505;SDS011;9894;50.852;-0.140;2023-06-14T09:58:47;6.60;;;6.20;;
19505;SDS011;9894;50.852;-0.140;2023-06-14T10:01:14;5.65;;;5.35;;
19505;SDS011;9894;50.852;-0.140;2023-06-14T10:03:41;5.60;;;5.30;;
19505;SDS011;9894;50.852;-0.140;2023-06-14T10:06:08;5.78;;;5.47;;
19505;SDS011;9894;50.852;-0.140;2023-06-14T10:08:35;5.80;;;5.50;;
19505;SDS011;9894;50.852;-0.140;2023-06-14T10:11:02;6.50;;;6.10;;
19505;SDS011;9894;50.852;-0.140;2023-06-14T10:13:32;5.18;;;4.88;;
19505;SDS011;9894;50.852;-0.140;2023-06-14T10:16:19;5.60;;;5.30;;
19505;SDS011;9894;50.852;-0.140;2023-06-14T10:24:12;5.30;;;5.00;;
19505;SDS011;9894;50.852;-0.140;2023-06-14T10:26:52;6.00;;;5.60;;
19505;SDS011;9894;50.852;-0.140;2023-06-14T10:29:19;5.90;;;5.53;;
19505;SDS011;9894;50.852;-0.140;2023-06-14T10:31:49;4.65;;;4.38;;
19505;SDS011;9894;50.852;-0.140;2023-06-14T10:34:26;5.53;;;5.22;;
19505;SDS011;9894;50.852;-0.140;2023-06-14T10:39:51;5.35;;;5.05;;
19505;SDS011;9894;50.852;-0.140;2023-06-14T10:42:21;7.60;;;7.03;;
19505;SDS011;9894;50.852;-0.140;2023-06-14T10:44:51;5.20;;;4.90;;
19505;SDS011;9894;50.852;-0.140;2023-06-14T10:47:25;10.77;;;9.93;;
19505;SDS011;9894;50.852;-0.140;2023-06-14T10:50:13;5.53;;;5.22;;
19505;SDS011;9894;50.852;-0.140;2023-06-14T10:52:45;5.82;;;5.43;;
19505;SDS011;9894;50.852;-0.140;2023-06-14T10:55:13;6.55;;;6.15;;
19505;SDS011;9894;50.852;-0.140;2023-06-14T10:57:40;7.03;;;6.53;;
19505;SDS011;9894;50.852;-0.140;2023-06-14T11:00:08;6.30;;;5.90;;
19505;SDS011;9894;50.852;-0.140;2023-06-14T11:02:45;6.82;;;6.07;;
19505;SDS011;9894;50.852;-0.140;2023-06-14T11:05:17;4.90;;;4.60;;
19505;SDS011;9894;50.852;-0.140;2023-06-14T11:10:39;6.43;;;6.03;;
19505;SDS011;9894;50.852;-0.140;2023-06-14T11:13:06;6.18;;;5.78;;
19505;SDS011;9894;50.852;-0.140;2023-06-14T11:15:34;6.20;;;5.70;;
19505;SDS011;9894;50.852;-0.140;2023-06-14T11:18:01;6.00;;;5.60;;
19505;SDS011;9894;50.852;-0.140;2023-06-14T11:20:29;6.18;;;5.78;;
19505;SDS011;9894;50.852;-0.140;2023-06-14T11:22:56;7.38;;;6.90;;
19505;SDS011;9894;50.852;-0.140;2023-06-14T11:25:22;5.60;;;5.30;;
19505;SDS011;9894;50.852;-0.140;2023-06-14T11:27:49;5.60;;;5.30;;
19505;SDS011;9894;50.852;-0.140;2023-06-14T11:30:15;6.00;;;5.60;;
19505;SDS011;9894;50.852;-0.140;2023-06-14T11:32:42;6.15;;;5.75;;
19505;SDS011;9894;50.852;-0.140;2023-06-14T11:35:08;6.25;;;5.82;;
19505;SDS011;9894;50.852;-0.140;2023-06-14T11:37:35;6.63;;;6.15;;
19505;SDS011;9894;50.852;-0.140;2023-06-14T11:40:07;7.57;;;7.03;;
19505;SDS011;9894;50.852;-0.140;2023-06-14T11:42:35;6.20;;;5.80;;
19505;SDS011;9894;50.852;-0.140;2023-06-14T11:45:02;6.35;;;5.93;;
19505;SDS011;9894;50.852;-0.140;2023-06-14T11:47:33;8.30;;;5.95;;
19505;SDS011;9894;50.852;-0.140;2023-06-14T11:50:01;6.60;;;6.20;;
19505;SDS011;9894;50.852;-0.140;2023-06-14T11:52:27;5.80;;;5.13;;
19505;SDS011;9894;50.852;-0.140;2023-06-14T11:54:54;5.55;;;5.25;;
19505;SDS011;9894;50.852;-0.140;2023-06-14T11:57:20;6.60;;;6.20;;
19505;SDS011;9894;50.852;-0.140;2023-06-14T11:59:46;5.20;;;4.90;;
19505;SDS011;9894;50.852;-0.140;2023-06-14T12:02:16;6.57;;;6.18;;
19505;SDS011;9894;50.852;-0.140;2023-06-14T12:04:49;6.57;;;5.18;;
19505;SDS011;9894;50.852;-0.140;2023-06-14T12:07:16;6.40;;;5.97;;
19505;SDS011;9894;50.852;-0.140;2023-06-14T12:12:22;6.28;;;5.80;;
19505;SDS011;9894;50.852;-0.140;2023-06-14T12:14:50;5.70;;;5.40;;
19505;SDS011;9894;50.852;-0.140;2023-06-14T12:17:17;6.30;;;5.90;;
19505;SDS011;9894;50.852;-0.140;2023-06-14T12:19:45;6.00;;;5.60;;
19505;SDS011;9894;50.852;-0.140;2023-06-14T12:22:12;7.05;;;6.55;;
19505;SDS011;9894;50.852;-0.140;2023-06-14T12:24:38;7.93;;;7.20;;
19505;SDS011;9894;50.852;-0.140;2023-06-14T12:27:05;6.10;;;5.70;;
19505;SDS011;9894;50.852;-0.140;2023-06-14T12:29:31;6.20;;;5.80;;
19505;SDS011;9894;50.852;-0.140;2023-06-14T12:31:58;6.40;;;5.90;;
19505;SDS011;9894;50.852;-0.140;2023-06-14T12:34:24;5.57;;;5.28;;
19505;SDS011;9894;50.852;-0.140;2023-06-14T12:36:55;6.85;;;6.35;;
19505;SDS011;9894;50.852;-0.140;2023-06-14T12:39:21;6.75;;;6.10;;
19505;SDS011;9894;50.852;-0.140;2023-06-14T12:41:48;4.95;;;4.65;;
19505;SDS011;9894;50.852;-0.140;2023-06-14T12:44:14;6.05;;;5.53;;
19505;SDS011;9894;50.852;-0.140;2023-06-14T12:46:41;5.75;;;5.45;;
19505;SDS011;9894;50.852;-0.140;2023-06-14T12:49:09;6.93;;;6.50;;
19505;SDS011;9894;50.852;-0.140;2023-06-14T12:51:36;5.70;;;5.40;;
19505;SDS011;9894;50.852;-0.140;2023-06-14T12:54:02;7.20;;;6.72;;
19505;SDS011;9894;50.852;-0.140;2023-06-14T12:56:28;5.70;;;5.40;;
19505;SDS011;9894;50.852;-0.140;2023-06-14T12:58:55;5.85;;;5.50;;
19505;SDS011;9894;50.852;-0.140;2023-06-14T13:01:21;5.50;;;5.20;;
19505;SDS011;9894;50.852;-0.140;2023-06-14T13:03:48;6.85;;;6.45;;
19505;SDS011;9894;50.852;-0.140;2023-06-14T13:06:17;7.20;;;6.70;;
19505;SDS011;9894;50.852;-0.140;2023-06-14T13:08:43;5.85;;;5.45;;
19505;SDS011;9894;50.852;-0.140;2023-06-14T13:11:09;6.03;;;5.63;;
19505;SDS011;9894;50.852;-0.140;2023-06-14T13:13:35;6.72;;;6.22;;
19505;SDS011;9894;50.852;-0.140;2023-06-14T13:16:02;6.35;;;5.95;;
19505;SDS011;9894;50.852;-0.140;2023-06-14T13:18:28;5.20;;;4.90;;
19505;SDS011;9894;50.852;-0.140;2023-06-14T13:20:54;5.75;;;5.43;;
19505;SDS011;9894;50.852;-0.140;2023-06-14T13:23:20;6.05;;;5.65;;
19505;SDS011;9894;50.852;-0.140;2023-06-14T13:25:47;6.57;;;5.97;;
19505;SDS011;9894;50.852;-0.140;2023-06-14T13:28:15;5.50;;;5.20;;
19505;SDS011;9894;50.852;-0.140;2023-06-14T13:30:44;6.07;;;5.68;;
19505;SDS011;9894;50.852;-0.140;2023-06-14T13:33:16;6.28;;;5.75;;
19505;SDS011;9894;50.852;-0.140;2023-06-14T13:35:42;6.28;;;5.88;;
19505;SDS011;9894;50.852;-0.140;2023-06-14T13:38:09;5.30;;;5.00;;
19505;SDS011;9894;50.852;-0.140;2023-06-14T13:40:36;5.70;;;5.40;;
19505;SDS011;9894;50.852;-0.140;2023-06-14T13:43:02;5.25;;;4.95;;
19505;SDS011;9894;50.852;-0.140;2023-06-14T13:45:29;5.40;;;5.10;;
19505;SDS011;9894;50.852;-0.140;2023-06-14T13:47:55;5.05;;;4.72;;
19505;SDS011;9894;50.852;-0.140;2023-06-14T13:50:21;3.97;;;3.78;;
19505;SDS011;9894;50.852;-0.140;2023-06-14T13:52:48;8.43;;;5.18;;
19505;SDS011;9894;50.852;-0.140;2023-06-14T13:55:14;4.20;;;4.00;;
19505;SDS011;9894;50.852;-0.140;2023-06-14T13:57:40;8.13;;;5.93;;
19505;SDS011;9894;50.852;-0.140;2023-06-14T14:00:07;5.70;;;5.38;;
19505;SDS011;9894;50.852;-0.140;2023-06-14T14:02:34;4.65;;;4.38;;
19505;SDS011;9894;50.852;-0.140;2023-06-14T14:05:00;3.92;;;3.72;;
19505;SDS011;9894;50.852;-0.140;2023-06-14T14:07:26;4.70;;;4.40;;
19505;SDS011;9894;50.852;-0.140;2023-06-14T14:09:55;4.13;;;3.83;;
19505;SDS011;9894;50.852;-0.140;2023-06-14T14:12:22;6.30;;;5.80;;
19505;SDS011;9894;50.852;-0.140;2023-06-14T14:14:50;5.45;;;5.15;;
19505;SDS011;9894;50.852;-0.140;2023-06-14T14:17:19;5.60;;;5.30;;
19505;SDS011;9894;50.852;-0.140;2023-06-14T14:19:51;5.05;;;4.75;;
19505;SDS011;9894;50.852;-0.140;2023-06-14T14:22:17;5.40;;;5.10;;
19505;SDS011;9894;50.852;-0.140;2023-06-14T14:24:43;4.90;;;4.60;;
19505;SDS011;9894;50.852;-0.140;2023-06-14T14:27:10;5.00;;;4.70;;
19505;SDS011;9894;50.852;-0.140;2023-06-14T14:29:37;5.13;;;4.82;;
19505;SDS011;9894;50.852;-0.140;2023-06-14T14:32:03;5.68;;;5.38;;
19505;SDS011;9894;50.852;-0.140;2023-06-14T14:34:29;5.30;;;5.00;;
19505;SDS011;9894;50.852;-0.140;2023-06-14T14:36:56;5.10;;;4.80;;
19505;SDS011;9894;50.852;-0.140;2023-06-14T14:39:22;6.57;;;6.07;;
19505;SDS011;9894;50.852;-0.140;2023-06-14T14:41:49;5.80;;;5.40;;
19505;SDS011;9894;50.852;-0.140;2023-06-14T14:44:18;5.32;;;5.03;;
19505;SDS011;9894;50.852;-0.140;2023-06-14T14:46:45;6.10;;;5.70;;
19505;SDS011;9894;50.852;-0.140;2023-06-14T14:49:11;5.65;;;5.35;;
19505;SDS011;9894;50.852;-0.140;2023-06-14T14:51:38;5.60;;;5.25;;
19505;SDS011;9894;50.852;-0.140;2023-06-14T14:54:08;4.82;;;4.53;;
19505;SDS011;9894;50.852;-0.140;2023-06-14T14:56:34;5.90;;;5.50;;
19505;SDS011;9894;50.852;-0.140;2023-06-14T14:59:00;5.00;;;4.70;;
19505;SDS011;9894;50.852;-0.140;2023-06-14T15:01:28;6.60;;;6.10;;
19505;SDS011;9894;50.852;-0.140;2023-06-14T15:03:54;5.60;;;5.30;;
19505;SDS011;9894;50.852;-0.140;2023-06-14T15:06:21;4.93;;;4.63;;
19505;SDS011;9894;50.852;-0.140;2023-06-14T15:08:47;4.80;;;4.50;;